createdAt,value
2023-04-03T00:00:51.173Z,79.37
2023-04-03T00:03:21.495Z,79.03
2023-04-03T00:05:50.808Z,79.23
2023-04-03T00:08:20.869Z,79.01
2023-04-03T00:10:52.803Z,79.42
2023-04-03T00:13:22.188Z,79.04
2023-04-03T00:15:55.799Z,79.33
2023-04-03T00:18:26.682Z,79.27
2023-04-03T00:20:55.989Z,79.47
2023-04-03T00:23:27.664Z,79.49
2023-04-03T00:26:00.280Z,79.80
2023-04-03T00:28:32.514Z,79.95
2023-04-03T00:31:04.559Z,79.86
2023-04-03T00:33:33.989Z,80.32
2023-04-03T00:36:03.407Z,80.21
2023-04-03T00:38:32.747Z,80.29
2023-04-03T00:41:03.824Z,80.56
2023-04-03T00:43:34.552Z,81.20
2023-04-03T00:46:07.077Z,80.90
2023-04-03T00:48:39.905Z,80.62
2023-04-03T00:51:14.574Z,80.84
2023-04-03T00:53:48.413Z,80.30
2023-04-03T00:56:20.911Z,80.79
2023-04-03T00:58:53.939Z,80.92
2023-04-03T01:01:28.865Z,80.39
2023-04-03T01:03:58.528Z,80.65
2023-04-03T01:06:32.271Z,80.90
2023-04-03T01:09:07.767Z,80.78
2023-04-03T01:11:37.123Z,80.63
2023-04-03T01:14:07.647Z,80.94
2023-04-03T01:16:40.685Z,80.34
2023-04-03T01:19:16.471Z,80.32
2023-04-03T01:22:06.979Z,79.84
2023-04-03T01:24:40.192Z,79.92
2023-04-03T01:27:13.259Z,79.78
2023-04-03T01:29:44.944Z,80.19
2023-04-03T01:32:16.859Z,80.07
2023-04-03T01:34:46.185Z,80.48
2023-04-03T01:37:15.596Z,80.25
2023-04-03T01:39:44.911Z,80.17
2023-04-03T01:42:14.243Z,80.14
2023-04-03T01:44:43.571Z,79.90
2023-04-03T01:47:12.921Z,79.49
2023-04-03T01:49:57.262Z,79.67
2023-04-03T01:52:26.621Z,79.30
2023-04-03T01:54:56.090Z,79.13
2023-04-03T01:57:25.505Z,78.65
2023-04-03T01:59:54.867Z,78.77
2023-04-03T02:02:24.214Z,78.83
2023-04-03T02:04:56.149Z,78.81
2023-04-03T02:07:25.607Z,78.26
2023-04-03T02:09:54.942Z,78.52
2023-04-03T02:12:24.294Z,78.76
2023-04-03T02:14:54.239Z,79.00
2023-04-03T02:17:26.320Z,78.96
2023-04-03T02:19:58.363Z,79.08
2023-04-03T02:22:29.172Z,79.30
2023-04-03T02:24:58.512Z,79.13
2023-04-03T02:27:30.159Z,79.22
2023-04-03T02:30:00.922Z,79.48
2023-04-03T02:32:30.714Z,79.96
2023-04-03T02:35:02.784Z,80.10
2023-04-03T02:37:32.479Z,79.80
2023-04-03T02:40:01.800Z,79.82
2023-04-03T02:42:31.128Z,79.61
2023-04-03T02:45:03.279Z,79.64
2023-04-03T02:47:32.712Z,79.53
2023-04-03T02:50:04.676Z,79.80
2023-04-03T02:52:34.043Z,80.01
2023-04-03T02:55:03.849Z,79.88
2023-04-03T02:57:33.218Z,80.07
2023-04-03T03:00:02.755Z,79.93
2023-04-03T03:02:34.341Z,79.83
2023-04-03T03:05:06.790Z,79.75
2023-04-03T03:07:36.325Z,80.03
2023-04-03T03:10:06.083Z,80.38
2023-04-03T03:12:35.492Z,80.97
2023-04-03T03:15:06.018Z,80.85
2023-04-03T03:17:37.085Z,80.53
2023-04-03T03:20:10.678Z,80.02
2023-04-03T03:22:40.105Z,79.65
2023-04-03T03:25:09.939Z,79.76
2023-04-03T03:27:39.516Z,79.93
2023-04-03T03:30:10.665Z,79.91
2023-04-03T03:32:40.046Z,79.69
2023-04-03T03:35:12.522Z,80.07
2023-04-03T03:37:41.897Z,79.78
2023-04-03T03:40:14.183Z,79.82
2023-04-03T03:42:43.641Z,79.61
2023-04-03T03:45:14.185Z,80.02
2023-04-03T03:47:43.696Z,79.81
2023-04-03T03:50:15.769Z,79.78
2023-04-03T03:52:45.589Z,79.75
2023-04-03T03:55:14.932Z,79.50
2023-04-03T03:57:44.494Z,79.70
2023-04-03T04:00:14.899Z,79.72
2023-04-03T04:02:44.425Z,79.60
2023-04-03T04:05:16.574Z,79.71
2023-04-03T04:07:45.943Z,79.85
2023-04-03T04:10:17.752Z,79.96
2023-04-03T04:12:47.097Z,79.89
2023-04-03T04:15:16.549Z,79.43
2023-04-03T04:17:46.148Z,79.91
2023-04-03T04:20:19.964Z,79.85
2023-04-03T04:22:49.359Z,79.87
2023-04-03T04:25:18.809Z,79.66
2023-04-03T04:27:48.120Z,79.75
2023-04-03T04:30:20.791Z,79.47
2023-04-03T04:32:52.595Z,79.42
2023-04-03T04:35:24.556Z,79.38
2023-04-03T04:37:54.150Z,79.31
2023-04-03T04:40:23.658Z,79.12
2023-04-03T04:42:53.077Z,79.13
2023-04-03T04:45:22.504Z,79.19
2023-04-03T04:47:53.536Z,79.18
2023-04-03T04:50:25.814Z,79.00
2023-04-03T04:52:55.203Z,79.18
2023-04-03T04:55:24.500Z,79.44
2023-04-03T04:57:56.320Z,79.10
2023-04-03T05:00:25.845Z,79.30
2023-04-03T05:02:55.203Z,79.07
2023-04-03T05:05:27.122Z,79.10
2023-04-03T05:07:56.428Z,79.38
2023-04-03T05:10:26.358Z,79.19
2023-04-03T05:12:55.726Z,79.47
2023-04-03T05:15:25.141Z,78.93
2023-04-03T05:17:54.563Z,79.26
2023-04-03T05:20:24.062Z,79.29
2023-04-03T05:22:56.119Z,79.48
2023-04-03T05:25:27.176Z,79.63
2023-04-03T05:27:56.696Z,79.83
2023-04-03T05:30:26.317Z,79.47
2023-04-03T05:32:55.844Z,79.69
2023-04-03T05:35:25.227Z,79.58
2023-04-03T05:37:57.240Z,79.99
2023-04-03T05:40:26.739Z,80.03
2023-04-03T05:42:56.372Z,80.05
2023-04-03T05:45:25.859Z,80.33
2023-04-03T05:47:55.845Z,80.99
2023-04-03T05:50:25.217Z,81.28
2023-04-03T05:53:00.948Z,81.75
2023-04-03T05:55:30.312Z,81.88
2023-04-03T05:57:59.635Z,82.41
2023-04-03T06:00:29.045Z,82.71
2023-04-03T06:02:58.503Z,82.99
2023-04-03T06:05:27.998Z,82.79
2023-04-03T06:07:59.904Z,82.43
2023-04-03T06:10:29.360Z,83.25
2023-04-03T06:12:58.723Z,84.34
2023-04-03T06:15:28.392Z,84.83
2023-04-03T06:17:58.002Z,84.62
2023-04-03T06:20:27.364Z,85.01
2023-04-03T06:22:56.768Z,85.32
2023-04-03T06:25:28.691Z,84.54
2023-04-03T06:27:58.131Z,85.84
2023-04-03T06:30:28.365Z,86.50
2023-04-03T06:32:57.738Z,87.08
2023-04-03T06:35:29.156Z,88.24
2023-04-03T06:37:58.588Z,87.11
2023-04-03T06:40:30.793Z,87.03
2023-04-03T06:43:00.142Z,86.73
2023-04-03T06:45:29.460Z,87.00
2023-04-03T06:47:58.821Z,86.23
2023-04-03T06:50:28.793Z,88.00
2023-04-03T06:52:58.389Z,87.86
2023-04-03T06:55:30.741Z,89.18
2023-04-03T06:58:00.272Z,89.69
2023-04-03T07:00:30.035Z,89.23
2023-04-03T07:02:59.647Z,91.44
2023-04-03T07:05:30.052Z,90.51
2023-04-03T07:07:59.419Z,90.33
2023-04-03T07:10:31.865Z,90.16
2023-04-03T07:13:02.663Z,90.52
2023-04-03T07:15:32.013Z,90.50
2023-04-03T07:18:05.624Z,90.16
2023-04-03T07:20:35.070Z,90.57
2023-04-03T07:23:04.410Z,90.07
2023-04-03T07:25:36.899Z,91.02
2023-04-03T07:28:06.373Z,92.00
2023-04-03T07:30:36.068Z,91.51
2023-04-03T07:33:05.489Z,92.42
2023-04-03T07:35:34.905Z,91.47
2023-04-03T07:38:04.302Z,90.80
2023-04-03T07:40:36.354Z,93.54
2023-04-03T07:43:06.300Z,91.41
2023-04-03T07:45:38.050Z,91.97
2023-04-03T07:48:08.251Z,90.61
2023-04-03T07:50:37.721Z,89.40
2023-04-03T07:53:07.213Z,89.80
2023-04-03T07:55:44.115Z,88.79
2023-04-03T07:58:14.053Z,89.04
2023-04-03T08:00:43.389Z,88.57
2023-04-03T08:03:14.988Z,89.50
2023-04-03T08:05:47.042Z,88.91
2023-04-03T08:08:20.062Z,89.79
2023-04-03T08:10:54.790Z,91.02
2023-04-03T08:13:25.517Z,90.20
2023-04-03T08:15:54.853Z,88.69
2023-04-03T08:18:25.630Z,89.07
2023-04-03T08:20:55.786Z,87.35
2023-04-03T08:23:25.094Z,86.37
2023-04-03T08:25:57.112Z,86.02
2023-04-03T08:28:26.422Z,87.04
2023-04-03T08:30:55.954Z,86.41
2023-04-03T08:33:25.614Z,87.30
2023-04-03T08:35:54.970Z,88.98
2023-04-03T08:38:24.337Z,82.89
2023-04-03T08:41:08.489Z,83.20
2023-04-03T08:43:46.993Z,84.25
2023-04-03T08:46:19.989Z,82.19
2023-04-03T08:48:50.099Z,80.85
2023-04-03T08:51:23.409Z,78.72
2023-04-03T08:54:00.598Z,78.88
2023-04-03T08:56:33.886Z,75.64
2023-04-03T08:59:08.300Z,75.90
2023-04-03T09:01:40.604Z,75.06
2023-04-03T09:04:15.627Z,75.70
2023-04-03T09:06:49.880Z,74.43
2023-04-03T09:09:28.752Z,75.87
2023-04-03T09:12:10.601Z,76.50
2023-04-03T09:14:43.433Z,74.06
2023-04-03T09:17:19.741Z,72.95
2023-04-03T09:19:58.895Z,74.90
2023-04-03T09:22:32.782Z,75.46
2023-04-03T09:25:09.768Z,74.97
2023-04-03T09:27:41.777Z,75.53
2023-04-03T09:30:17.467Z,73.67
2023-04-03T09:32:49.582Z,74.88
2023-04-03T09:35:36.334Z,77.69
2023-04-03T09:38:23.396Z,74.06
2023-04-03T09:40:54.669Z,74.78
2023-04-03T09:43:30.129Z,73.54
2023-04-03T09:46:21.015Z,73.89
2023-04-03T09:49:07.532Z,75.92
2023-04-03T09:51:38.266Z,72.54
2023-04-03T09:54:29.450Z,73.62
2023-04-03T09:57:02.135Z,71.20
2023-04-03T09:59:35.012Z,72.39
2023-04-03T10:02:07.446Z,69.81
2023-04-03T10:04:44.340Z,70.24
2023-04-03T10:07:31.781Z,70.81
2023-04-03T10:10:05.263Z,70.25
2023-04-03T10:12:34.638Z,69.22
2023-04-03T10:15:07.711Z,66.03
2023-04-03T10:17:47.464Z,65.84
2023-04-03T10:20:33.975Z,65.43
2023-04-03T10:23:18.993Z,64.57
2023-04-03T10:25:59.756Z,65.70
2023-04-03T10:28:37.427Z,64.26
2023-04-03T10:31:18.731Z,64.80
2023-04-03T10:34:00.801Z,64.40
2023-04-03T10:36:40.406Z,63.88
2023-04-03T10:39:19.145Z,64.67
2023-04-03T10:42:12.852Z,64.84
2023-04-03T10:45:00.168Z,65.43
2023-04-03T10:47:43.970Z,65.79
2023-04-03T10:50:31.656Z,65.87
2023-04-03T10:53:07.954Z,61.72
2023-04-03T10:55:42.212Z,63.80
2023-04-03T10:58:21.808Z,64.69
2023-04-03T11:00:54.653Z,64.42
2023-04-03T11:03:34.958Z,63.79
2023-04-03T11:06:09.459Z,64.63
2023-04-03T11:08:46.040Z,62.95
2023-04-03T11:11:19.413Z,62.21
2023-04-03T11:13:55.305Z,61.42
2023-04-03T11:16:29.533Z,62.23
2023-04-03T11:19:06.179Z,61.45
2023-04-03T11:21:39.786Z,62.09
2023-04-03T11:24:16.525Z,61.36
2023-04-03T11:26:46.680Z,61.85
2023-04-03T11:29:34.153Z,61.90
2023-04-03T11:32:15.503Z,63.30
2023-04-03T11:34:51.160Z,62.72
2023-04-03T11:37:28.291Z,61.79
2023-04-03T11:40:01.657Z,61.12
2023-04-03T11:42:37.606Z,60.70
2023-04-03T11:45:35.680Z,62.16
2023-04-03T11:48:20.954Z,61.92
2023-04-03T11:50:56.354Z,63.73
2023-04-03T11:53:35.561Z,63.64
2023-04-03T11:56:21.484Z,63.91
2023-04-03T11:59:22.105Z,63.03
2023-04-03T12:01:52.844Z,62.62
2023-04-03T12:04:23.736Z,62.78
2023-04-03T12:07:23.937Z,61.60
2023-04-03T12:10:03.195Z,62.27
2023-04-03T12:12:39.139Z,62.55
2023-04-03T12:15:28.476Z,62.60
2023-04-03T12:17:59.054Z,62.73
2023-04-03T12:20:57.598Z,62.68
2023-04-03T12:23:32.563Z,63.06
2023-04-03T12:26:28.254Z,62.97
2023-04-03T12:29:04.073Z,63.23
2023-04-03T12:31:50.003Z,61.42
2023-04-03T12:34:37.416Z,61.62
2023-04-03T12:37:13.076Z,62.43
2023-04-03T12:39:58.400Z,62.12
2023-04-03T12:42:50.147Z,61.23
2023-04-03T12:45:23.898Z,63.08
2023-04-03T12:47:56.164Z,62.17
2023-04-03T12:50:27.858Z,62.08
2023-04-03T12:53:03.304Z,61.05
2023-04-03T12:55:36.256Z,62.43
2023-04-03T12:58:18.871Z,61.43
2023-04-03T13:00:48.212Z,61.45
2023-04-03T13:03:28.365Z,61.89
2023-04-03T13:06:02.893Z,62.13
2023-04-03T13:08:32.671Z,61.42
2023-04-03T13:11:06.909Z,61.15
2023-04-03T13:13:36.727Z,59.60
2023-04-03T13:16:14.876Z,59.36
2023-04-03T13:18:44.236Z,59.65
2023-04-03T13:21:18.933Z,59.80
2023-04-03T13:23:55.190Z,60.21
2023-04-03T13:26:32.834Z,60.61
2023-04-03T13:29:05.377Z,60.65
2023-04-03T13:31:36.552Z,61.02
2023-04-03T13:34:11.953Z,59.47
2023-04-03T13:36:43.775Z,60.18
2023-04-03T13:39:27.941Z,60.92
2023-04-03T13:42:02.730Z,60.83
2023-04-03T13:44:36.982Z,61.17
2023-04-03T13:47:20.787Z,60.54
2023-04-03T13:50:04.283Z,60.56
2023-04-03T13:52:38.840Z,59.89
2023-04-03T13:55:25.356Z,59.89
2023-04-03T13:58:00.962Z,60.11
2023-04-03T14:00:51.647Z,60.94
2023-04-03T14:03:24.241Z,59.37
2023-04-03T14:05:54.565Z,58.63
2023-04-03T14:08:39.529Z,58.50
2023-04-03T14:11:17.328Z,59.35
2023-04-03T14:13:51.393Z,58.62
2023-04-03T14:16:24.312Z,58.08
2023-04-03T14:18:54.620Z,59.16
2023-04-03T14:21:25.407Z,58.46
2023-04-03T14:23:54.718Z,58.67
2023-04-03T14:26:27.600Z,58.78
2023-04-03T14:28:59.482Z,59.01
2023-04-03T14:31:28.949Z,58.24
2023-04-03T14:33:58.335Z,59.04
2023-04-03T14:36:31.381Z,59.48
2023-04-03T14:39:04.908Z,59.14
2023-04-03T14:41:34.362Z,59.15
2023-04-03T14:44:06.928Z,58.85
2023-04-03T14:46:55.402Z,58.27
2023-04-03T14:49:29.193Z,58.75
2023-04-03T14:51:58.851Z,58.07
2023-04-03T14:54:30.211Z,58.54
2023-04-03T14:57:02.396Z,58.31
2023-04-03T14:59:34.813Z,58.37
2023-04-03T15:02:08.207Z,57.78
2023-04-03T15:04:37.800Z,58.38
2023-04-03T15:07:07.233Z,58.09
2023-04-03T15:09:39.463Z,58.29
2023-04-03T15:12:09.031Z,58.03
2023-04-03T15:14:52.438Z,57.98
2023-04-03T15:17:26.290Z,57.17
2023-04-03T15:19:55.697Z,57.48
2023-04-03T15:22:25.106Z,57.36
2023-04-03T15:24:54.488Z,57.16
2023-04-03T15:27:23.873Z,56.04
2023-04-03T15:29:55.792Z,56.96
2023-04-03T15:32:25.167Z,56.02
2023-04-03T15:34:56.120Z,55.75
2023-04-03T15:37:26.210Z,56.02
2023-04-03T15:39:55.582Z,56.12
2023-04-03T15:42:24.927Z,55.59
2023-04-03T15:44:56.869Z,56.38
2023-04-03T15:47:26.431Z,56.03
2023-04-03T15:49:57.109Z,55.77
2023-04-03T15:52:26.414Z,55.95
2023-04-03T15:54:55.786Z,56.64
2023-04-03T15:57:27.914Z,56.78
2023-04-03T16:00:00.307Z,56.73
2023-04-03T16:02:30.239Z,56.77
2023-04-03T16:04:59.612Z,56.93
2023-04-03T16:07:28.968Z,56.80
2023-04-03T16:09:58.536Z,56.42
2023-04-03T16:12:27.908Z,56.07
2023-04-03T16:14:59.829Z,56.32
2023-04-03T16:17:30.019Z,57.41
2023-04-03T16:19:59.657Z,56.70
2023-04-03T16:22:31.317Z,57.63
2023-04-03T16:25:00.764Z,57.33
2023-04-03T16:27:31.952Z,57.89
2023-04-03T16:30:04.071Z,57.03
2023-04-03T16:32:35.031Z,57.21
2023-04-03T16:35:04.541Z,57.75
2023-04-03T16:37:33.880Z,57.95
2023-04-03T16:40:03.489Z,57.59
2023-04-03T16:42:32.860Z,57.78
2023-04-03T16:45:04.796Z,57.37
2023-04-03T16:47:34.393Z,57.50
2023-04-03T16:50:03.859Z,57.94
2023-04-03T16:52:33.243Z,57.68
2023-04-03T16:55:02.755Z,56.93
2023-04-03T16:57:32.177Z,57.42
2023-04-03T17:00:04.114Z,56.96
2023-04-03T17:02:33.498Z,56.93
2023-04-03T17:05:02.948Z,57.54
2023-04-03T17:07:32.317Z,56.30
2023-04-03T17:10:01.851Z,55.12
2023-04-03T17:12:31.633Z,55.44
2023-04-03T17:15:01.057Z,55.91
2023-04-03T17:17:32.984Z,56.13
2023-04-03T17:20:02.599Z,56.57
2023-04-03T17:22:33.214Z,56.87
2023-04-03T17:25:02.704Z,57.24
2023-04-03T17:27:32.159Z,57.61
2023-04-03T17:30:01.473Z,57.42
2023-04-03T17:32:33.593Z,57.69
2023-04-03T17:35:02.934Z,58.11
2023-04-03T17:37:32.360Z,58.64
2023-04-03T17:40:01.699Z,58.76
2023-04-03T17:42:31.567Z,58.85
2023-04-03T17:45:01.331Z,59.53
2023-04-03T17:47:33.300Z,58.76
2023-04-03T17:50:02.650Z,59.59
2023-04-03T17:52:32.052Z,59.81
2023-04-03T17:55:01.395Z,59.86
2023-04-03T17:57:31.669Z,60.17
2023-04-03T18:00:01.129Z,60.03
2023-04-03T18:02:33.177Z,60.17
2023-04-03T18:05:02.658Z,60.31
2023-04-03T18:07:32.412Z,60.47
2023-04-03T18:10:05.153Z,60.68
2023-04-03T18:12:34.935Z,60.69
2023-04-03T18:15:07.177Z,60.77
2023-04-03T18:17:39.166Z,60.74
2023-04-03T18:20:10.408Z,61.10
2023-04-03T18:22:40.038Z,61.33
2023-04-03T18:25:11.439Z,61.03
2023-04-03T18:27:40.994Z,61.18
2023-04-03T18:30:14.364Z,61.36
2023-04-03T18:32:46.393Z,61.56
2023-04-03T18:35:16.177Z,61.39
2023-04-03T18:37:45.731Z,61.47
2023-04-03T18:40:16.661Z,61.21
2023-04-03T18:42:47.125Z,61.57
2023-04-03T18:45:23.000Z,61.88
2023-04-03T18:47:55.170Z,61.85
2023-04-03T18:50:24.593Z,61.81
2023-04-03T18:52:54.205Z,61.91
2023-04-03T18:55:23.824Z,62.01
2023-04-03T18:57:53.187Z,62.26
2023-04-03T19:00:22.781Z,62.45
2023-04-03T19:02:54.886Z,62.19
2023-04-03T19:05:27.144Z,62.28
2023-04-03T19:07:57.420Z,62.42
2023-04-03T19:10:27.365Z,62.74
2023-04-03T19:12:56.713Z,62.44
2023-04-03T19:15:27.728Z,63.01
2023-04-03T19:17:59.663Z,63.20
2023-04-03T19:20:29.480Z,63.20
2023-04-03T19:22:58.803Z,63.01
2023-04-03T19:25:28.187Z,63.28
2023-04-03T19:27:57.560Z,63.37
2023-04-03T19:30:27.471Z,63.36
2023-04-03T19:32:59.516Z,63.41
2023-04-03T19:35:29.249Z,63.50
2023-04-03T19:37:58.592Z,63.83
2023-04-03T19:40:29.136Z,64.08
2023-04-03T19:42:58.492Z,64.08
2023-04-03T19:45:27.981Z,64.09
2023-04-03T19:48:01.557Z,63.91
2023-04-03T19:50:30.988Z,64.19
2023-04-03T19:53:00.376Z,64.19
2023-04-03T19:55:31.576Z,64.03
2023-04-03T19:58:02.190Z,63.99
2023-04-03T20:00:33.313Z,64.22
2023-04-03T20:03:06.372Z,64.19
2023-04-03T20:05:35.871Z,64.14
2023-04-03T20:08:05.192Z,63.73
2023-04-03T20:10:35.290Z,63.89
2023-04-03T20:13:08.594Z,64.34
2023-04-03T20:15:41.130Z,63.73
2023-04-03T20:18:18.279Z,63.75
2023-04-03T20:20:49.753Z,63.84
2023-04-03T20:23:19.084Z,64.71
2023-04-03T20:26:01.538Z,64.88
2023-04-03T20:28:36.330Z,64.56
2023-04-03T20:31:06.843Z,64.43
2023-04-03T20:33:39.135Z,64.75
2023-04-03T20:36:10.481Z,64.42
2023-04-03T20:38:39.830Z,64.55
2023-04-03T20:41:11.749Z,64.30
2023-04-03T20:43:42.987Z,64.24
2023-04-03T20:46:14.305Z,64.25
2023-04-03T20:48:46.768Z,64.45
2023-04-03T20:51:18.445Z,64.62
2023-04-03T20:53:48.058Z,64.62
2023-04-03T20:56:20.824Z,64.48
2023-04-03T20:58:51.002Z,64.56
2023-04-03T21:01:23.055Z,64.43
2023-04-03T21:04:02.592Z,64.74
2023-04-03T21:07:03.139Z,64.55
2023-04-03T21:10:03.567Z,64.49
2023-04-03T21:13:03.175Z,64.42
2023-04-03T21:15:52.465Z,63.98
2023-04-03T21:18:44.381Z,64.20
2023-04-03T21:21:23.372Z,64.53
2023-04-03T21:23:56.129Z,64.10
2023-04-03T21:26:28.152Z,64.13
2023-04-03T21:28:57.956Z,64.17
2023-04-03T21:31:27.706Z,64.27
2023-04-03T21:34:00.251Z,64.22
2023-04-03T21:36:29.591Z,64.21
2023-04-03T21:38:59.312Z,64.00
2023-04-03T21:41:28.613Z,64.13
2023-04-03T21:43:58.255Z,63.87
2023-04-03T21:46:27.791Z,63.90
2023-04-03T21:48:59.867Z,64.19
2023-04-03T21:51:30.441Z,64.16
2023-04-03T21:53:59.860Z,65.63
2023-04-03T21:56:31.390Z,65.76
2023-04-03T21:59:04.824Z,65.20
2023-04-03T22:01:34.666Z,65.38
2023-04-03T22:04:07.160Z,64.80
2023-04-03T22:06:37.453Z,64.82
2023-04-03T22:09:06.957Z,65.16
2023-04-03T22:11:38.334Z,65.18
2023-04-03T22:14:07.674Z,64.74
2023-04-03T22:16:37.249Z,64.83
2023-04-03T22:19:09.228Z,64.69
2023-04-03T22:21:38.581Z,64.84
2023-04-03T22:24:08.432Z,64.78
2023-04-03T22:26:39.614Z,64.66
2023-04-03T22:29:08.912Z,64.81
2023-04-03T22:31:38.654Z,64.60
2023-04-03T22:34:10.611Z,64.90
2023-04-03T22:36:43.391Z,64.42
2023-04-03T22:39:15.295Z,64.80
2023-04-03T22:41:45.402Z,64.89
2023-04-03T22:44:15.288Z,64.54
2023-04-03T22:46:44.925Z,64.70
2023-04-03T22:49:17.231Z,64.73
2023-04-03T22:51:46.758Z,64.78
2023-04-03T22:54:16.067Z,64.59
2023-04-03T22:56:45.391Z,64.24
2023-04-03T22:59:14.743Z,64.32
2023-04-03T23:01:44.308Z,64.40
2023-04-03T23:04:13.649Z,64.27
2023-04-03T23:06:45.714Z,63.93
2023-04-03T23:09:15.000Z,63.79
2023-04-03T23:11:44.329Z,63.74
2023-04-03T23:14:13.980Z,63.64
2023-04-03T23:16:43.398Z,63.67
2023-04-03T23:19:13.028Z,63.99
2023-04-03T23:21:45.884Z,63.87
2023-04-03T23:24:16.064Z,63.81
2023-04-03T23:26:45.400Z,63.71
2023-04-03T23:29:14.735Z,63.70
2023-04-03T23:31:44.038Z,63.80
2023-04-03T23:34:13.451Z,63.81
2023-04-03T23:36:45.320Z,63.72
2023-04-03T23:39:14.641Z,63.83
2023-04-03T23:41:44.574Z,64.14
2023-04-03T23:44:13.979Z,63.80
2023-04-03T23:46:43.301Z,63.97
2023-04-03T23:49:12.638Z,64.24
2023-04-03T23:51:44.748Z,63.89
2023-04-03T23:54:14.048Z,64.28
2023-04-03T23:56:43.381Z,64.61
2023-04-03T23:59:12.698Z,63.92
